Standard, Canada
Current Conditions -  °F | °C
As of 8:00 AM on Friday 24 Oct 2014 (Local Time) from CYYC Reporting Station
Broken Clouds Broken Clouds  
Wind Chill: 31°   Ceiling: 20000
Heat Index: 37°   Visibility: 40mi
Dew Point: 21°   Wind: 9mph
Humidity: 52%   Direction: 220°SW
Pressure: 29.83"   Gusts: NA
Location:  51.12°N, 112.98°W
Report Text: CYYC 241400Z 22008KT 40SM FEW060 FEW180 BKN200 03/M06 A2983 RMK SC1AC2CI4 SC TR SLP134
Loading
Personal Weather Stations






























Interactive Weather Map
Tropical Storm Tracking
New forecast layout! Learn more

10-Day Weather Forecast

Advertisements
Track Severe Weather on mobile